createdAt,value
2022-11-20T00:01:59.732Z,3.96
2022-11-20T00:04:28.869Z,3.97
2022-11-20T00:06:58.020Z,3.98
2022-11-20T00:09:27.239Z,4.00
2022-11-20T00:11:56.393Z,4.05
2022-11-20T00:14:25.512Z,4.02
2022-11-20T00:16:54.574Z,4.04
2022-11-20T00:19:23.764Z,4.03
2022-11-20T00:21:54.817Z,3.97
2022-11-20T00:24:23.915Z,3.94
2022-11-20T00:26:52.967Z,3.92
2022-11-20T00:29:22.130Z,3.95
2022-11-20T00:31:51.311Z,3.92
2022-11-20T00:34:20.490Z,3.90
2022-11-20T00:36:49.567Z,3.86
2022-11-20T00:39:19.083Z,3.83
2022-11-20T00:41:48.428Z,3.79
2022-11-20T00:44:17.491Z,3.77
2022-11-20T00:46:46.588Z,3.76
2022-11-20T00:49:15.656Z,3.76
2022-11-20T00:51:44.737Z,3.71
2022-11-20T00:54:13.894Z,3.71
2022-11-20T00:56:43.037Z,3.67
2022-11-20T00:59:12.169Z,3.68
2022-11-20T01:01:41.229Z,3.69
2022-11-20T01:04:10.331Z,3.67
2022-11-20T01:06:40.863Z,3.68
2022-11-20T01:09:15.122Z,3.66
2022-11-20T01:11:46.046Z,3.62
2022-11-20T01:14:18.575Z,3.65
2022-11-20T01:16:51.095Z,3.67
2022-11-20T01:19:22.960Z,3.72
2022-11-20T01:21:54.374Z,3.75
2022-11-20T01:24:23.957Z,3.71
2022-11-20T01:26:53.076Z,3.69
2022-11-20T01:29:25.161Z,3.67
2022-11-20T01:31:54.561Z,3.63
2022-11-20T01:34:24.269Z,3.69
2022-11-20T01:36:54.479Z,3.68
2022-11-20T01:39:26.333Z,3.69
2022-11-20T01:42:15.498Z,3.69
2022-11-20T01:44:48.575Z,3.65
2022-11-20T01:47:26.679Z,3.66
2022-11-20T01:50:01.292Z,3.66
2022-11-20T01:52:39.405Z,3.66
2022-11-20T01:55:14.031Z,3.69
2022-11-20T01:57:45.840Z,3.72
2022-11-20T02:00:17.561Z,3.71
2022-11-20T02:02:55.718Z,3.76
2022-11-20T02:05:33.845Z,3.79
2022-11-20T02:08:05.338Z,3.82
2022-11-20T02:10:34.976Z,3.88
2022-11-20T02:13:22.851Z,3.92
2022-11-20T02:15:52.761Z,3.97
2022-11-20T02:18:23.989Z,4.00
2022-11-20T02:21:20.143Z,4.01
2022-11-20T02:24:15.183Z,4.04
2022-11-20T02:27:10.155Z,4.04
2022-11-20T02:29:45.647Z,4.09
2022-11-20T02:32:23.796Z,4.07
2022-11-20T02:34:53.244Z,4.05
2022-11-20T02:37:22.529Z,4.01
2022-11-20T02:39:53.069Z,4.05
2022-11-20T02:42:22.169Z,4.07
2022-11-20T02:44:51.237Z,4.03
2022-11-20T02:47:20.401Z,4.02
2022-11-20T02:49:49.429Z,4.00
2022-11-20T02:52:18.662Z,4.04
2022-11-20T02:54:47.834Z,4.10
2022-11-20T02:57:17.185Z,4.12
2022-11-20T02:59:46.346Z,4.15
2022-11-20T03:02:15.456Z,4.16
2022-11-20T03:04:44.544Z,4.15
2022-11-20T03:07:13.649Z,4.16
2022-11-20T03:09:42.820Z,4.17
2022-11-20T03:12:11.892Z,4.16
2022-11-20T03:14:41.239Z,4.18
2022-11-20T03:17:10.389Z,4.14
2022-11-20T03:19:39.549Z,4.18
2022-11-20T03:22:08.721Z,4.19
2022-11-20T03:24:37.799Z,4.19
2022-11-20T03:27:06.933Z,4.21
2022-11-20T03:29:36.550Z,4.22
2022-11-20T03:32:05.987Z,4.24
2022-11-20T03:34:35.074Z,4.22
2022-11-20T03:37:04.246Z,4.20
2022-11-20T03:39:33.321Z,4.21
2022-11-20T03:42:02.444Z,4.23
2022-11-20T03:44:31.527Z,4.26
2022-11-20T03:47:00.631Z,4.30
2022-11-20T03:49:29.687Z,4.29
2022-11-20T03:51:58.757Z,4.28
2022-11-20T03:54:27.788Z,4.29
2022-11-20T03:56:56.880Z,4.27
2022-11-20T03:59:26.093Z,4.26
2022-11-20T04:01:55.260Z,4.25
2022-11-20T04:04:24.370Z,4.25
2022-11-20T04:06:53.646Z,4.22
2022-11-20T04:09:23.165Z,4.18
2022-11-20T04:11:52.491Z,4.17
2022-11-20T04:14:21.600Z,4.16
2022-11-20T04:16:50.731Z,4.18
2022-11-20T04:19:19.965Z,4.22
2022-11-20T04:21:49.335Z,4.25
2022-11-20T04:24:18.488Z,4.13
2022-11-20T04:26:47.596Z,4.08
2022-11-20T04:29:16.675Z,4.19
2022-11-20T04:31:45.772Z,4.20
2022-11-20T04:34:14.915Z,4.23
2022-11-20T04:36:44.086Z,4.28
2022-11-20T04:39:16.225Z,4.30
2022-11-20T04:41:45.360Z,4.34
2022-11-20T04:44:14.549Z,4.34
2022-11-20T04:46:44.065Z,4.36
2022-11-20T04:49:13.406Z,4.35
2022-11-20T04:51:42.478Z,4.35
2022-11-20T04:54:12.313Z,4.40
2022-11-20T04:56:41.394Z,4.44
2022-11-20T04:59:10.455Z,4.45
2022-11-20T05:01:39.739Z,4.48
2022-11-20T05:04:09.023Z,4.46
2022-11-20T05:06:38.078Z,4.43
2022-11-20T05:09:07.264Z,4.43
2022-11-20T05:11:36.384Z,4.43
2022-11-20T05:14:05.589Z,4.43
2022-11-20T05:16:36.387Z,4.42
2022-11-20T05:19:05.467Z,4.43
2022-11-20T05:21:34.505Z,4.48
2022-11-20T05:24:03.852Z,4.47
2022-11-20T05:26:32.914Z,4.46
2022-11-20T05:29:02.047Z,4.44
2022-11-20T05:31:31.211Z,4.47
2022-11-20T05:34:00.291Z,4.48
2022-11-20T05:36:29.410Z,4.47
2022-11-20T05:39:01.729Z,4.41
2022-11-20T05:41:31.500Z,4.40
2022-11-20T05:44:00.612Z,4.39
2022-11-20T05:46:29.957Z,4.38
2022-11-20T05:48:59.402Z,4.35
2022-11-20T05:51:28.925Z,4.32
2022-11-20T05:53:59.473Z,4.29
2022-11-20T05:56:28.633Z,4.32
2022-11-20T05:58:57.794Z,4.35
2022-11-20T06:01:27.355Z,4.36
2022-11-20T06:03:56.477Z,4.37
2022-11-20T06:06:26.997Z,4.38
2022-11-20T06:08:56.638Z,4.40
2022-11-20T06:11:26.412Z,4.44
2022-11-20T06:13:55.519Z,4.45
2022-11-20T06:16:24.640Z,4.43
2022-11-20T06:18:53.692Z,4.36
2022-11-20T06:21:25.025Z,4.42
2022-11-20T06:23:54.901Z,4.45
2022-11-20T06:26:26.499Z,4.49
2022-11-20T06:28:57.182Z,4.54
2022-11-20T06:31:27.348Z,4.61
2022-11-20T06:33:56.454Z,4.64
2022-11-20T06:36:25.542Z,4.65
2022-11-20T06:38:54.649Z,4.65
2022-11-20T06:41:23.966Z,4.68
2022-11-20T06:43:53.298Z,4.73
2022-11-20T06:46:23.228Z,4.76
2022-11-20T06:48:52.391Z,4.74
2022-11-20T06:51:22.445Z,4.84
2022-11-20T06:53:51.600Z,4.85
2022-11-20T06:56:20.729Z,4.78
2022-11-20T06:58:49.819Z,4.88
2022-11-20T07:01:21.836Z,4.98
2022-11-20T07:03:54.418Z,5.04
2022-11-20T07:06:23.770Z,5.10
2022-11-20T07:08:53.832Z,5.20
2022-11-20T07:11:23.033Z,5.33
2022-11-20T07:13:52.215Z,5.40
2022-11-20T07:16:21.245Z,5.47
2022-11-20T07:18:51.188Z,5.54
2022-11-20T07:21:20.492Z,5.65
2022-11-20T07:23:49.690Z,5.68
2022-11-20T07:26:18.736Z,5.68
2022-11-20T07:28:47.859Z,5.72
2022-11-20T07:34:29.413Z,5.78
2022-11-20T07:36:58.648Z,5.84
2022-11-20T07:39:27.709Z,5.86
2022-11-20T07:41:56.829Z,5.92
2022-11-20T07:44:26.037Z,5.97
2022-11-20T07:46:55.307Z,6.03
2022-11-20T07:49:24.588Z,6.15
2022-11-20T07:51:54.821Z,6.25
2022-11-20T07:54:24.261Z,6.30
2022-11-20T07:56:53.355Z,6.34
2022-11-20T07:59:22.623Z,6.43
2022-11-20T08:01:52.295Z,6.51
2022-11-20T08:04:21.443Z,6.55
2022-11-20T08:06:50.756Z,6.63
2022-11-20T08:09:20.338Z,6.69
2022-11-20T08:12:07.932Z,6.71
2022-11-20T08:14:37.222Z,6.80
2022-11-20T08:17:06.301Z,6.93
2022-11-20T08:19:35.375Z,7.05
2022-11-20T08:22:04.418Z,7.16
2022-11-20T08:24:33.550Z,7.25
2022-11-20T08:27:02.623Z,7.33
2022-11-20T08:29:31.770Z,7.40
2022-11-20T08:32:00.883Z,7.43
2022-11-20T08:34:30.003Z,7.40
2022-11-20T08:36:59.884Z,7.43
2022-11-20T08:39:28.994Z,7.58
2022-11-20T08:41:58.203Z,7.74
2022-11-20T08:44:27.376Z,7.89
2022-11-20T08:46:56.460Z,7.96
2022-11-20T08:49:25.617Z,8.14
2022-11-20T08:51:56.312Z,8.18
2022-11-20T08:54:25.416Z,8.24
2022-11-20T08:56:54.563Z,8.31
2022-11-20T08:59:43.944Z,8.25
2022-11-20T09:02:13.191Z,8.19
2022-11-20T09:04:42.315Z,8.18
2022-11-20T09:07:11.474Z,8.17
2022-11-20T09:09:40.630Z,8.26
2022-11-20T09:12:09.746Z,8.33
2022-11-20T09:14:38.870Z,8.45
2022-11-20T09:17:08.652Z,8.52
2022-11-20T09:19:37.808Z,8.56
2022-11-20T09:22:06.977Z,8.50
2022-11-20T09:24:36.151Z,8.58
2022-11-20T09:27:06.311Z,8.66
2022-11-20T09:29:35.656Z,8.71
2022-11-20T09:32:05.079Z,8.68
2022-11-20T09:34:34.281Z,8.69
2022-11-20T09:37:06.405Z,8.72
2022-11-20T09:39:39.991Z,8.63
2022-11-20T09:42:29.366Z,8.64
2022-11-20T09:45:13.740Z,8.66
2022-11-20T09:48:00.200Z,8.62
2022-11-20T09:50:49.688Z,8.54
2022-11-20T09:53:42.175Z,8.50
2022-11-20T09:56:12.449Z,8.38
2022-11-20T09:58:48.616Z,8.34
2022-11-20T10:01:20.783Z,8.33
2022-11-20T10:04:05.722Z,8.38
2022-11-20T10:06:41.532Z,8.45
2022-11-20T10:09:13.721Z,8.51
2022-11-20T10:11:45.983Z,8.59
2022-11-20T10:14:25.222Z,8.67
2022-11-20T10:17:12.630Z,8.73
2022-11-20T10:20:04.045Z,8.84
2022-11-20T10:22:42.058Z,8.90
2022-11-20T10:25:20.798Z,8.92
2022-11-20T10:28:10.774Z,8.89
2022-11-20T10:30:44.101Z,8.73
2022-11-20T10:33:25.079Z,8.53
2022-11-20T10:36:03.324Z,8.17
2022-11-20T10:38:44.135Z,7.81
2022-11-20T10:41:33.128Z,7.62
2022-11-20T10:44:11.158Z,7.58
2022-11-20T10:46:44.872Z,7.66
2022-11-20T10:49:16.616Z,7.76
2022-11-20T10:52:04.030Z,7.78
2022-11-20T10:54:42.151Z,7.75
2022-11-20T10:58:01.308Z,7.55
2022-11-20T11:00:33.380Z,7.33
2022-11-20T11:03:05.319Z,7.40
2022-11-20T11:05:40.247Z,7.41
2022-11-20T11:08:14.876Z,7.31
2022-11-20T11:10:55.880Z,7.39
2022-11-20T11:13:27.057Z,7.39
2022-11-20T11:15:57.250Z,7.45
2022-11-20T11:18:31.620Z,7.54
2022-11-20T11:21:03.507Z,7.47
2022-11-20T11:23:40.233Z,7.50
2022-11-20T11:26:38.754Z,7.80
2022-11-20T11:29:18.946Z,8.02
2022-11-20T11:31:48.122Z,8.16
2022-11-20T11:34:18.470Z,8.29
2022-11-20T11:36:58.708Z,8.40
2022-11-20T11:39:30.419Z,8.54
2022-11-20T11:42:01.819Z,8.61
2022-11-20T11:44:54.187Z,8.65
2022-11-20T11:47:44.674Z,8.70
2022-11-20T11:50:13.774Z,8.65
2022-11-20T11:52:57.762Z,8.74
2022-11-20T11:55:41.861Z,8.66
2022-11-20T11:58:32.535Z,8.53
2022-11-20T12:01:16.225Z,8.67
2022-11-20T12:04:00.701Z,8.62
2022-11-20T12:06:33.150Z,8.65
2022-11-20T12:09:13.117Z,8.53
2022-11-20T12:11:55.592Z,8.53
2022-11-20T12:14:30.704Z,8.38
2022-11-20T12:17:01.299Z,8.31
2022-11-20T12:19:34.532Z,8.22
2022-11-20T12:22:19.292Z,8.28
2022-11-20T12:24:59.975Z,8.39
2022-11-20T12:28:04.248Z,8.25
2022-11-20T12:30:39.624Z,8.10
2022-11-20T12:33:27.676Z,8.08
2022-11-20T12:36:19.192Z,8.17
2022-11-20T12:39:07.530Z,8.01
2022-11-20T12:42:14.119Z,7.95
2022-11-20T12:45:10.748Z,7.83
2022-11-20T12:47:39.966Z,7.74
2022-11-20T12:51:08.007Z,7.58
2022-11-20T12:53:44.870Z,7.51
2022-11-20T12:56:35.090Z,7.59
2022-11-20T12:59:19.368Z,7.62
2022-11-20T13:02:02.283Z,7.58
2022-11-20T13:04:37.192Z,7.73
2022-11-20T13:07:13.374Z,7.85
2022-11-20T13:09:47.912Z,7.93
2022-11-20T13:12:32.853Z,7.97
2022-11-20T13:15:37.477Z,8.12
2022-11-20T13:18:11.550Z,8.03
2022-11-20T13:20:45.181Z,8.06
2022-11-20T13:23:25.871Z,8.12
2022-11-20T13:26:07.637Z,8.17
2022-11-20T13:28:37.218Z,8.28
2022-11-20T13:31:06.452Z,8.21
2022-11-20T13:33:37.678Z,8.11
2022-11-20T13:36:25.663Z,8.05
2022-11-20T13:38:56.836Z,7.95
2022-11-20T13:41:35.114Z,7.88
2022-11-20T13:44:10.224Z,7.72
2022-11-20T13:46:42.793Z,7.53
2022-11-20T13:49:43.939Z,7.41
2022-11-20T13:52:42.065Z,7.15
2022-11-20T13:55:29.570Z,7.00
2022-11-20T13:58:01.839Z,6.88
2022-11-20T14:00:31.466Z,6.75
2022-11-20T14:03:10.927Z,6.69
2022-11-20T14:05:49.651Z,6.59
2022-11-20T14:08:40.702Z,6.49
2022-11-20T14:11:26.538Z,6.38
2022-11-20T14:14:14.155Z,6.31
2022-11-20T14:16:46.715Z,6.19
2022-11-20T14:19:21.916Z,6.12
2022-11-20T14:21:55.167Z,6.03
2022-11-20T14:24:26.129Z,5.97
2022-11-20T14:26:55.377Z,5.85
2022-11-20T14:29:29.924Z,5.72
2022-11-20T14:31:59.105Z,5.64
2022-11-20T14:34:33.672Z,5.59
2022-11-20T14:37:16.344Z,5.53
2022-11-20T14:39:54.749Z,5.45
2022-11-20T14:42:26.114Z,5.36
2022-11-20T14:45:00.219Z,5.27
2022-11-20T14:47:32.119Z,5.18
2022-11-20T14:50:05.945Z,5.09
2022-11-20T14:52:37.929Z,5.01
2022-11-20T14:55:09.127Z,4.96
2022-11-20T14:57:38.776Z,4.89
2022-11-20T15:00:13.876Z,4.89
2022-11-20T15:02:45.343Z,4.91
2022-11-20T15:05:15.974Z,4.83
2022-11-20T15:07:48.624Z,4.74
2022-11-20T15:10:17.705Z,4.62
2022-11-20T15:12:56.742Z,4.48
2022-11-20T15:15:34.606Z,4.38
2022-11-20T15:18:05.178Z,4.30
2022-11-20T15:20:36.738Z,4.28
2022-11-20T15:23:19.351Z,4.34
2022-11-20T15:25:49.477Z,4.33
2022-11-20T15:28:34.764Z,4.32
2022-11-20T15:31:05.272Z,4.29
2022-11-20T15:33:36.850Z,4.26
2022-11-20T15:36:06.068Z,4.21
2022-11-20T15:38:35.404Z,4.13
2022-11-20T15:41:04.941Z,4.07
2022-11-20T15:43:34.136Z,4.01
2022-11-20T15:46:06.138Z,3.96
2022-11-20T15:48:37.397Z,3.82
2022-11-20T15:51:12.366Z,3.73
2022-11-20T15:53:42.923Z,3.63
2022-11-20T15:56:15.918Z,3.62
2022-11-20T15:58:45.035Z,3.61
2022-11-20T16:01:16.883Z,3.58
2022-11-20T16:03:46.242Z,3.59
2022-11-20T16:06:17.117Z,3.54
2022-11-20T16:08:46.583Z,3.53
2022-11-20T16:11:17.647Z,3.53
2022-11-20T16:14:05.462Z,3.49
2022-11-20T16:16:37.292Z,3.47
2022-11-20T16:19:06.514Z,3.41
2022-11-20T16:21:35.916Z,3.37
2022-11-20T16:24:07.266Z,3.29
2022-11-20T16:26:36.842Z,3.23
2022-11-20T16:29:07.269Z,3.18
2022-11-20T16:31:36.678Z,3.11
2022-11-20T16:34:12.389Z,3.04
2022-11-20T16:36:43.456Z,2.99
2022-11-20T16:39:13.507Z,2.97
2022-11-20T16:41:42.681Z,2.94
2022-11-20T16:44:11.878Z,2.90
2022-11-20T16:46:41.286Z,2.90
2022-11-20T16:49:14.397Z,2.89
2022-11-20T16:51:43.698Z,2.86
2022-11-20T16:54:16.397Z,2.81
2022-11-20T16:56:48.820Z,2.75
2022-11-20T16:59:18.028Z,2.73
2022-11-20T17:01:47.277Z,2.68
2022-11-20T17:04:17.191Z,2.64
2022-11-20T17:06:46.322Z,2.66
2022-11-20T17:09:15.457Z,2.63
2022-11-20T17:11:44.609Z,2.60
2022-11-20T17:14:13.698Z,2.62
2022-11-20T17:16:43.178Z,2.63
2022-11-20T17:19:16.795Z,2.70
2022-11-20T17:21:45.879Z,2.67
2022-11-20T17:24:16.289Z,2.60
2022-11-20T17:26:45.913Z,2.60
2022-11-20T17:29:21.617Z,2.60
2022-11-20T17:31:51.153Z,2.60
2022-11-20T17:34:20.285Z,2.62
2022-11-20T17:36:49.353Z,2.64
2022-11-20T17:39:18.424Z,2.68
2022-11-20T17:42:10.325Z,2.61
2022-11-20T17:44:40.986Z,2.52
2022-11-20T17:47:10.310Z,2.51
2022-11-20T17:49:39.410Z,2.58
2022-11-20T17:52:08.665Z,2.67
2022-11-20T17:54:37.898Z,2.72
2022-11-20T17:57:25.726Z,2.82
2022-11-20T17:59:54.863Z,2.94
2022-11-20T18:02:24.884Z,3.06
2022-11-20T18:04:54.093Z,3.15
2022-11-20T18:07:23.325Z,3.22
2022-11-20T18:09:52.474Z,3.15
2022-11-20T18:12:21.593Z,3.08
2022-11-20T18:14:50.665Z,3.02
2022-11-20T18:17:19.721Z,3.01
2022-11-20T18:20:21.390Z,2.96
2022-11-20T18:22:40.038Z,2.91
2022-11-20T18:25:09.491Z,2.94
2022-11-20T18:27:38.672Z,2.92
2022-11-20T18:30:08.362Z,2.97
2022-11-20T18:32:37.921Z,3.04
2022-11-20T18:35:07.318Z,3.01
2022-11-20T18:37:36.484Z,2.97
2022-11-20T18:40:06.188Z,2.99
2022-11-20T18:42:55.173Z,3.08
2022-11-20T18:45:24.280Z,3.12
2022-11-20T18:47:53.340Z,3.14
2022-11-20T18:50:23.080Z,3.09
2022-11-20T18:52:52.204Z,3.10
2022-11-20T18:55:25.175Z,3.15
2022-11-20T18:57:55.256Z,3.23
2022-11-20T19:00:24.378Z,3.27
2022-11-20T19:02:54.708Z,3.24
2022-11-20T19:05:23.816Z,3.18
2022-11-20T19:07:52.931Z,3.21
2022-11-20T19:10:24.344Z,3.20
2022-11-20T19:12:53.541Z,3.06
2022-11-20T19:15:22.693Z,2.98
2022-11-20T19:17:52.138Z,2.85
2022-11-20T19:20:21.215Z,2.73
2022-11-20T19:22:51.174Z,2.62
2022-11-20T19:25:20.321Z,2.62
2022-11-20T19:27:49.424Z,2.71
2022-11-20T19:30:18.864Z,2.81
2022-11-20T19:32:48.033Z,2.91
2022-11-20T19:35:17.234Z,2.96
2022-11-20T19:37:46.307Z,2.92
2022-11-20T19:40:15.386Z,2.84
2022-11-20T19:42:44.554Z,2.76
2022-11-20T19:45:13.924Z,2.70
2022-11-20T19:48:06.667Z,2.57
2022-11-20T19:50:32.188Z,2.51
2022-11-20T19:53:01.346Z,2.52
2022-11-20T19:55:30.423Z,2.47
2022-11-20T19:57:59.604Z,2.42
2022-11-20T20:00:32.797Z,2.36
2022-11-20T20:03:02.394Z,2.44
2022-11-20T20:05:31.492Z,2.51
2022-11-20T20:08:00.616Z,2.68
2022-11-20T20:10:29.905Z,2.83
2022-11-20T20:12:58.981Z,2.96
2022-11-20T20:15:28.110Z,3.12
2022-11-20T20:17:57.260Z,3.19
2022-11-20T20:20:26.404Z,3.18
2022-11-20T20:22:55.550Z,3.09
2022-11-20T20:25:24.643Z,2.99
2022-11-20T20:27:53.887Z,2.80
2022-11-20T20:30:22.978Z,2.56
2022-11-20T20:32:56.209Z,2.35
2022-11-20T20:35:25.653Z,2.19
2022-11-20T20:37:54.724Z,2.16
2022-11-20T20:40:24.684Z,2.15
2022-11-20T20:42:53.832Z,2.12
2022-11-20T20:45:23.000Z,2.02
2022-11-20T20:47:52.238Z,1.92
2022-11-20T20:50:22.138Z,1.98
2022-11-20T20:52:51.233Z,2.06
2022-11-20T20:55:20.405Z,2.14
2022-11-20T20:57:49.553Z,2.16
2022-11-20T21:00:18.850Z,2.32
2022-11-20T21:02:49.821Z,2.43
2022-11-20T21:05:19.106Z,2.50
2022-11-20T21:08:06.671Z,2.51
2022-11-20T21:10:35.808Z,2.48
2022-11-20T21:13:04.928Z,2.45
2022-11-20T21:15:34.003Z,2.35
2022-11-20T21:18:03.081Z,2.40
2022-11-20T21:20:50.625Z,2.36
2022-11-20T21:23:19.725Z,2.20
2022-11-20T21:25:48.825Z,2.04
2022-11-20T21:28:18.480Z,1.89
2022-11-20T21:30:48.220Z,1.78
2022-11-20T21:33:17.301Z,1.68
2022-11-20T21:35:46.394Z,1.59
2022-11-20T21:38:15.515Z,1.54
2022-11-20T21:40:44.647Z,1.48
2022-11-20T21:43:14.459Z,1.42
2022-11-20T21:45:43.519Z,1.30
2022-11-20T21:48:12.552Z,1.27
2022-11-20T21:50:41.618Z,1.24
2022-11-20T21:53:10.681Z,1.22
2022-11-20T21:55:39.958Z,1.13
2022-11-20T21:58:09.077Z,1.07
2022-11-20T22:00:38.132Z,1.07
2022-11-20T22:03:07.259Z,1.14
2022-11-20T22:05:36.315Z,1.09
2022-11-20T22:08:06.053Z,1.03
2022-11-20T22:10:35.163Z,1.01
2022-11-20T22:13:22.970Z,0.94
2022-11-20T22:16:00.690Z,0.86
2022-11-20T22:18:30.384Z,0.79
2022-11-20T22:21:09.831Z,0.86
2022-11-20T22:23:39.510Z,0.84
2022-11-20T22:26:13.929Z,0.82
2022-11-20T22:28:43.784Z,0.81
2022-11-20T22:31:12.905Z,0.80
2022-11-20T22:33:42.030Z,0.79
2022-11-20T22:36:14.227Z,0.82
2022-11-20T22:38:43.669Z,0.84
2022-11-20T22:41:19.881Z,0.86
2022-11-20T22:43:54.146Z,0.94
2022-11-20T22:46:24.189Z,1.13
2022-11-20T22:48:58.372Z,1.31
2022-11-20T22:51:29.981Z,1.44
2022-11-20T22:53:59.791Z,1.57
2022-11-20T22:56:29.624Z,1.75
2022-11-20T22:58:58.751Z,1.92
2022-11-20T23:01:30.530Z,2.03
2022-11-20T23:04:01.975Z,2.06
2022-11-20T23:06:34.317Z,2.12
2022-11-20T23:09:04.909Z,2.17
2022-11-20T23:11:35.299Z,2.11
2022-11-20T23:14:15.312Z,2.03
2022-11-20T23:16:44.510Z,1.98
2022-11-20T23:19:15.385Z,2.01
2022-11-20T23:21:44.846Z,1.97
2022-11-20T23:24:13.915Z,2.03
2022-11-20T23:26:44.811Z,2.08
2022-11-20T23:29:14.086Z,2.17
2022-11-20T23:31:43.452Z,2.13
2022-11-20T23:34:12.507Z,2.03
2022-11-20T23:36:41.663Z,1.96
2022-11-20T23:39:11.299Z,1.93
2022-11-20T23:41:40.424Z,1.90
2022-11-20T23:44:09.478Z,1.96
2022-11-20T23:46:38.545Z,2.01
2022-11-20T23:49:07.674Z,2.07
2022-11-20T23:51:36.761Z,2.12
2022-11-20T23:54:05.922Z,2.19
2022-11-20T23:56:35.193Z,2.26
2022-11-20T23:59:07.406Z,2.36
